createdAt,value
2022-09-03T00:00:54.906Z,23.64
2022-09-03T00:03:44.365Z,23.58
2022-09-03T00:06:33.333Z,23.55
2022-09-03T00:09:03.706Z,23.57
2022-09-03T00:11:43.458Z,23.51
2022-09-03T00:14:20.787Z,23.49
2022-09-03T00:16:53.161Z,23.49
2022-09-03T00:19:33.823Z,23.46
2022-09-03T00:22:08.784Z,23.44
2022-09-03T00:24:38.210Z,23.44
2022-09-03T00:27:11.478Z,23.40
2022-09-03T00:29:55.037Z,23.34
2022-09-03T00:32:47.821Z,23.31
2022-09-03T00:35:21.749Z,23.30
2022-09-03T00:37:49.079Z,23.29
2022-09-03T00:40:32.516Z,23.23
2022-09-03T00:43:06.128Z,23.21
2022-09-03T00:45:41.531Z,23.17
2022-09-03T00:48:27.743Z,23.15
2022-09-03T00:51:11.907Z,23.13
2022-09-03T00:53:59.313Z,23.09
2022-09-03T00:56:44.435Z,23.08
2022-09-03T00:59:37.107Z,23.01
2022-09-03T01:02:36.441Z,22.97
2022-09-03T01:05:35.705Z,22.91
2022-09-03T01:08:26.389Z,22.88
2022-09-03T01:11:07.966Z,22.84
2022-09-03T01:13:34.523Z,22.80
2022-09-03T01:16:16.291Z,22.73
2022-09-03T01:19:05.709Z,22.74
2022-09-03T01:22:26.313Z,22.67
2022-09-03T01:25:15.173Z,22.65
2022-09-03T01:28:05.984Z,22.64
2022-09-03T01:30:39.026Z,22.61
2022-09-03T01:33:14.191Z,22.58
2022-09-03T01:35:48.239Z,22.51
2022-09-03T01:38:34.434Z,22.48
2022-09-03T01:41:58.450Z,22.44
2022-09-03T01:44:32.704Z,22.45
2022-09-03T01:47:11.762Z,22.39
2022-09-03T01:50:20.956Z,22.37
2022-09-03T01:53:05.690Z,22.33
2022-09-03T01:55:32.233Z,22.29
2022-09-03T01:58:24.256Z,22.23
2022-09-03T02:00:59.103Z,22.19
2022-09-03T02:03:33.584Z,22.17
2022-09-03T02:06:00.616Z,22.13
2022-09-03T02:08:27.131Z,22.10
2022-09-03T02:11:01.862Z,22.05
2022-09-03T02:13:48.715Z,22.00
2022-09-03T02:16:27.772Z,21.95
2022-09-03T02:18:57.733Z,21.95
2022-09-03T02:21:27.416Z,21.91
2022-09-03T02:23:54.063Z,21.88
2022-09-03T02:26:23.782Z,21.82
2022-09-03T02:28:52.008Z,21.80
2022-09-03T02:31:18.990Z,21.77
2022-09-03T02:33:49.011Z,21.73
2022-09-03T02:36:19.280Z,21.70
2022-09-03T02:38:46.581Z,21.67
2022-09-03T02:41:14.161Z,21.64
2022-09-03T02:43:55.335Z,21.58
2022-09-03T02:46:26.979Z,21.57
2022-09-03T02:48:54.936Z,21.55
2022-09-03T02:51:21.645Z,21.51
2022-09-03T02:53:48.194Z,21.50
2022-09-03T02:56:14.708Z,21.49
2022-09-03T02:58:41.485Z,21.47
2022-09-03T03:01:08.296Z,21.47
2022-09-03T03:03:34.844Z,21.44
2022-09-03T03:06:04.562Z,21.43
2022-09-03T03:08:32.961Z,21.42
2022-09-03T03:11:00.677Z,21.40
2022-09-03T03:13:28.351Z,21.38
2022-09-03T03:16:03.287Z,21.33
2022-09-03T03:18:30.030Z,21.34
2022-09-03T03:20:56.510Z,21.31
2022-09-03T03:23:23.091Z,21.29
2022-09-03T03:25:49.864Z,21.27
2022-09-03T03:28:18.109Z,21.27
2022-09-03T03:30:47.599Z,21.26
2022-09-03T03:33:14.214Z,21.24
2022-09-03T03:35:42.603Z,21.21
2022-09-03T03:38:09.127Z,21.20
2022-09-03T03:40:38.472Z,21.17
2022-09-03T03:43:04.976Z,21.15
2022-09-03T03:45:31.458Z,21.13
2022-09-03T03:47:59.212Z,21.11
2022-09-03T03:50:26.164Z,21.09
2022-09-03T03:52:52.654Z,21.07
2022-09-03T03:55:19.135Z,21.07
2022-09-03T03:57:46.757Z,21.03
2022-09-03T04:00:14.367Z,21.01
2022-09-03T04:02:40.887Z,21.00
2022-09-03T04:05:07.825Z,20.96
2022-09-03T04:07:34.911Z,20.94
2022-09-03T04:10:01.469Z,20.91
2022-09-03T04:12:27.999Z,20.89
2022-09-03T04:14:54.483Z,20.87
2022-09-03T04:17:25.025Z,20.84
2022-09-03T04:19:51.840Z,20.82
2022-09-03T04:22:19.120Z,20.79
2022-09-03T04:24:45.608Z,20.78
2022-09-03T04:27:12.076Z,20.75
2022-09-03T04:29:38.592Z,20.74
2022-09-03T04:32:24.890Z,20.71
2022-09-03T04:34:51.391Z,20.69
2022-09-03T04:37:19.823Z,20.66
2022-09-03T04:39:46.442Z,20.63
2022-09-03T04:42:12.987Z,20.61
2022-09-03T04:44:41.131Z,20.60
2022-09-03T04:47:07.688Z,20.59
2022-09-03T04:49:34.619Z,20.57
2022-09-03T04:52:01.495Z,20.56
2022-09-03T04:54:29.228Z,20.53
2022-09-03T04:56:56.389Z,20.52
2022-09-03T04:59:22.909Z,20.51
2022-09-03T05:01:49.525Z,20.50
2022-09-03T05:04:16.047Z,20.48
2022-09-03T05:06:43.377Z,20.45
2022-09-03T05:09:09.925Z,20.46
2022-09-03T05:11:36.785Z,20.43
2022-09-03T05:14:05.900Z,20.44
2022-09-03T05:16:32.532Z,20.46
2022-09-03T05:19:00.841Z,20.46
2022-09-03T05:21:28.468Z,20.47
2022-09-03T05:23:54.988Z,20.49
2022-09-03T05:26:27.433Z,20.48
2022-09-03T05:28:56.267Z,20.51
2022-09-03T05:31:26.287Z,20.54
2022-09-03T05:33:55.005Z,20.57
2022-09-03T05:36:23.428Z,20.61
2022-09-03T05:38:50.856Z,20.63
2022-09-03T05:41:18.918Z,20.68
2022-09-03T05:43:51.879Z,20.71
2022-09-03T05:46:18.470Z,20.74
2022-09-03T05:48:45.544Z,20.77
2022-09-03T05:51:17.108Z,20.81
2022-09-03T05:53:45.991Z,20.85
2022-09-03T05:56:20.916Z,20.88
2022-09-03T05:58:50.159Z,20.95
2022-09-03T06:01:20.915Z,20.98
2022-09-03T06:03:53.592Z,21.03
2022-09-03T06:06:25.461Z,21.09
2022-09-03T06:08:53.491Z,21.14
2022-09-03T06:11:20.779Z,21.21
2022-09-03T06:13:47.721Z,21.25
2022-09-03T06:16:14.555Z,21.30
2022-09-03T06:18:41.187Z,21.37
2022-09-03T06:21:07.859Z,21.42
2022-09-03T06:23:36.267Z,21.48
2022-09-03T06:26:05.244Z,21.55
2022-09-03T06:28:36.207Z,21.67
2022-09-03T06:31:04.653Z,21.73
2022-09-03T06:33:32.749Z,21.79
2022-09-03T06:36:00.979Z,21.85
2022-09-03T06:38:35.779Z,21.91
2022-09-03T06:41:05.049Z,22.01
2022-09-03T06:43:34.228Z,22.06
2022-09-03T06:46:03.629Z,22.15
2022-09-03T06:48:32.484Z,22.22
2022-09-03T06:51:01.315Z,22.29
2022-09-03T06:53:32.225Z,22.37
2022-09-03T06:56:04.518Z,22.45
2022-09-03T06:58:33.624Z,22.54
2022-09-03T07:01:12.860Z,22.64
2022-09-03T07:03:41.109Z,22.76
2022-09-03T07:06:13.892Z,22.86
2022-09-03T07:08:41.863Z,22.98
2022-09-03T07:11:12.015Z,23.06
2022-09-03T07:13:41.171Z,23.16
2022-09-03T07:16:11.297Z,23.24
2022-09-03T07:18:37.891Z,23.35
2022-09-03T07:21:07.628Z,23.42
2022-09-03T07:23:35.671Z,23.51
2022-09-03T07:26:05.546Z,23.59
2022-09-03T07:28:34.319Z,23.71
2022-09-03T07:31:13.850Z,23.80
2022-09-03T07:33:41.063Z,23.91
2022-09-03T07:36:10.401Z,23.98
2022-09-03T07:38:37.455Z,24.11
2022-09-03T07:41:08.368Z,24.23
2022-09-03T07:43:48.922Z,24.44
2022-09-03T07:46:24.185Z,24.73
2022-09-03T07:48:52.321Z,25.09
2022-09-03T07:51:20.643Z,25.49
2022-09-03T07:53:48.688Z,25.95
2022-09-03T07:56:15.842Z,26.44
2022-09-03T07:58:42.928Z,26.91
2022-09-03T08:01:13.178Z,27.34
2022-09-03T08:03:45.333Z,27.75
2022-09-03T08:06:12.887Z,28.16
2022-09-03T08:08:40.266Z,28.53
2022-09-03T08:11:10.778Z,28.85
2022-09-03T08:13:42.248Z,29.13
2022-09-03T08:16:09.885Z,29.42
2022-09-03T08:18:39.168Z,29.65
2022-09-03T08:21:16.980Z,29.78
2022-09-03T08:23:45.834Z,29.89
2022-09-03T08:26:13.783Z,29.90
2022-09-03T08:28:40.648Z,29.85
2022-09-03T08:31:12.699Z,29.67
2022-09-03T08:33:44.967Z,29.49
2022-09-03T08:36:26.973Z,29.26
2022-09-03T08:38:55.260Z,29.07
2022-09-03T08:41:40.883Z,28.81
2022-09-03T08:44:16.333Z,28.66
2022-09-03T08:46:58.249Z,28.48
2022-09-03T08:49:39.992Z,28.34
2022-09-03T08:52:20.240Z,28.25
2022-09-03T08:54:49.347Z,28.16
2022-09-03T08:57:19.257Z,28.09
2022-09-03T08:59:46.674Z,28.05
2022-09-03T09:02:53.647Z,27.98
2022-09-03T09:05:58.907Z,27.96
2022-09-03T09:09:11.558Z,27.95
2022-09-03T09:12:00.137Z,27.95
2022-09-03T09:15:00.158Z,27.94
2022-09-03T09:17:52.273Z,27.97
2022-09-03T09:20:32.732Z,28.01
2022-09-03T09:23:07.665Z,28.07
2022-09-03T09:25:47.134Z,28.17
2022-09-03T09:28:24.406Z,28.30
2022-09-03T09:30:55.647Z,28.41
2022-09-03T09:33:23.571Z,28.54
2022-09-03T09:35:50.323Z,28.65
2022-09-03T09:38:28.498Z,28.72
2022-09-03T09:40:57.522Z,28.86
2022-09-03T09:43:24.570Z,28.94
2022-09-03T09:45:53.320Z,29.05
2022-09-03T09:48:31.159Z,29.13
2022-09-03T09:51:12.254Z,29.27
2022-09-03T09:53:40.051Z,29.41
2022-09-03T09:56:07.944Z,29.50
2022-09-03T09:58:35.831Z,29.57
2022-09-03T10:01:18.722Z,29.60
2022-09-03T10:03:55.125Z,29.66
2022-09-03T10:06:47.964Z,29.70
2022-09-03T10:09:26.745Z,29.79
2022-09-03T10:11:58.205Z,29.86
2022-09-03T10:14:33.234Z,29.90
2022-09-03T10:17:10.656Z,29.95
2022-09-03T10:20:27.281Z,29.98
2022-09-03T10:22:59.231Z,30.07
2022-09-03T10:25:32.131Z,30.11
2022-09-03T10:28:01.967Z,30.17
2022-09-03T10:30:31.466Z,30.21
2022-09-03T10:33:24.888Z,30.25
2022-09-03T10:36:07.386Z,30.30
2022-09-03T10:38:34.626Z,30.36
2022-09-03T10:41:21.294Z,30.38
2022-09-03T10:44:09.024Z,30.45
2022-09-03T10:46:50.342Z,30.56
2022-09-03T10:49:41.227Z,30.65
2022-09-03T10:52:35.146Z,30.76
2022-09-03T10:55:23.752Z,30.85
2022-09-03T10:57:56.198Z,30.94
2022-09-03T11:00:23.818Z,31.03
2022-09-03T11:03:29.930Z,31.08
2022-09-03T11:05:58.643Z,31.21
2022-09-03T11:08:31.240Z,31.30
2022-09-03T11:11:10.633Z,31.38
2022-09-03T11:13:47.272Z,31.46
2022-09-03T11:16:31.078Z,31.50
2022-09-03T11:19:04.185Z,31.52
2022-09-03T11:21:32.803Z,31.52
2022-09-03T11:24:06.782Z,31.46
2022-09-03T11:26:35.300Z,31.49
2022-09-03T11:29:06.969Z,31.49
2022-09-03T11:32:00.254Z,31.47
2022-09-03T11:34:32.021Z,31.53
2022-09-03T11:37:29.932Z,31.58
2022-09-03T11:40:05.874Z,31.67
2022-09-03T11:42:39.249Z,31.78
2022-09-03T11:45:30.113Z,31.86
2022-09-03T11:47:56.779Z,31.97
2022-09-03T11:50:31.640Z,31.97
2022-09-03T11:53:10.652Z,32.00
2022-09-03T11:56:06.459Z,32.03
2022-09-03T11:58:36.568Z,32.06
2022-09-03T12:01:09.023Z,32.06
2022-09-03T12:04:08.057Z,32.01
2022-09-03T12:06:54.317Z,31.99
2022-09-03T12:09:39.619Z,31.97
2022-09-03T12:12:36.949Z,31.94
2022-09-03T12:15:40.817Z,31.92
2022-09-03T12:18:20.637Z,31.93
2022-09-03T12:20:50.807Z,31.92
2022-09-03T12:23:35.287Z,31.90
2022-09-03T12:26:08.318Z,31.91
2022-09-03T12:28:41.457Z,31.91
2022-09-03T12:31:24.729Z,31.89
2022-09-03T12:33:59.907Z,31.89
2022-09-03T12:36:37.064Z,31.88
2022-09-03T12:42:20.847Z,31.90
2022-09-03T12:44:47.604Z,31.94
2022-09-03T12:47:36.905Z,31.95
2022-09-03T12:50:24.286Z,31.95
2022-09-03T12:52:56.297Z,31.97
2022-09-03T12:55:42.898Z,31.93
2022-09-03T12:58:25.536Z,31.91
2022-09-03T13:01:01.054Z,31.91
2022-09-03T13:03:32.599Z,31.92
2022-09-03T13:06:08.152Z,31.93
2022-09-03T13:08:50.649Z,31.92
2022-09-03T13:11:21.064Z,31.92
2022-09-03T13:14:00.494Z,31.93
2022-09-03T13:16:45.372Z,31.94
2022-09-03T13:19:11.856Z,32.01
2022-09-03T13:22:04.207Z,31.98
2022-09-03T13:24:51.920Z,32.01
2022-09-03T13:27:26.478Z,32.03
2022-09-03T13:30:05.221Z,32.00
2022-09-03T13:32:51.786Z,31.98
2022-09-03T13:35:34.628Z,31.99
2022-09-03T13:38:14.816Z,31.98
2022-09-03T13:41:21.509Z,31.98
2022-09-03T13:44:07.818Z,32.03
2022-09-03T13:46:46.583Z,32.05
2022-09-03T13:49:37.759Z,32.14
2022-09-03T13:52:11.329Z,32.20
2022-09-03T13:54:49.818Z,32.24
2022-09-03T13:57:22.529Z,32.32
2022-09-03T14:00:00.051Z,32.36
2022-09-03T14:02:45.367Z,32.45
2022-09-03T14:05:19.697Z,32.50
2022-09-03T14:08:02.690Z,32.52
2022-09-03T14:10:52.685Z,32.59
2022-09-03T14:13:37.547Z,32.61
2022-09-03T14:16:09.124Z,32.65
2022-09-03T14:18:51.886Z,32.61
2022-09-03T14:21:44.356Z,32.59
2022-09-03T14:24:37.628Z,32.57
2022-09-03T14:27:04.848Z,32.54
2022-09-03T14:29:35.978Z,32.47
2022-09-03T14:32:15.443Z,32.43
2022-09-03T14:35:04.561Z,32.38
2022-09-03T14:37:50.094Z,32.38
2022-09-03T14:40:29.778Z,32.32
2022-09-03T14:43:33.919Z,32.29
2022-09-03T14:46:23.128Z,32.27
2022-09-03T14:49:04.980Z,32.22
2022-09-03T14:51:56.015Z,32.13
2022-09-03T14:55:16.818Z,32.06
2022-09-03T14:57:55.233Z,32.00
2022-09-03T15:00:33.352Z,31.94
2022-09-03T15:03:42.836Z,31.82
2022-09-03T15:06:36.804Z,31.74
2022-09-03T15:09:40.584Z,31.67
2022-09-03T15:12:23.487Z,31.63
2022-09-03T15:14:55.078Z,31.59
2022-09-03T15:17:46.190Z,31.54
2022-09-03T15:20:43.638Z,31.52
2022-09-03T15:23:38.035Z,31.51
2022-09-03T15:26:10.899Z,31.51
2022-09-03T15:29:02.040Z,31.45
2022-09-03T15:31:47.205Z,31.47
2022-09-03T15:34:22.815Z,31.40
2022-09-03T15:36:54.516Z,31.40
2022-09-03T15:39:27.147Z,31.38
2022-09-03T15:41:58.250Z,31.39
2022-09-03T15:44:27.908Z,31.40
2022-09-03T15:47:00.699Z,31.38
2022-09-03T15:49:58.384Z,31.37
2022-09-03T15:52:43.101Z,31.36
2022-09-03T15:55:09.815Z,31.39
2022-09-03T15:58:06.078Z,31.33
2022-09-03T16:00:48.382Z,31.33
2022-09-03T16:03:23.823Z,31.31
2022-09-03T16:06:20.820Z,31.25
2022-09-03T16:08:55.790Z,31.23
2022-09-03T16:11:52.088Z,31.19
2022-09-03T16:14:28.846Z,31.15
2022-09-03T16:17:16.058Z,31.08
2022-09-03T16:20:01.662Z,31.04
2022-09-03T16:22:34.142Z,31.04
2022-09-03T16:25:09.850Z,31.01
2022-09-03T16:27:51.360Z,30.97
2022-09-03T16:30:39.016Z,30.96
2022-09-03T16:33:27.839Z,30.93
2022-09-03T16:36:01.576Z,30.93
2022-09-03T16:38:47.616Z,30.88
2022-09-03T16:41:28.140Z,30.86
2022-09-03T16:44:33.853Z,30.82
2022-09-03T16:47:19.081Z,30.81
2022-09-03T16:50:04.913Z,30.76
2022-09-03T16:52:54.133Z,30.74
2022-09-03T16:55:25.500Z,30.71
2022-09-03T16:57:54.740Z,30.71
2022-09-03T17:00:22.294Z,30.68
2022-09-03T17:03:26.767Z,30.62
2022-09-03T17:06:11.419Z,30.62
2022-09-03T17:08:58.547Z,30.56
2022-09-03T17:11:46.324Z,30.51
2022-09-03T17:14:25.973Z,30.46
2022-09-03T17:17:08.536Z,30.39
2022-09-03T17:20:13.190Z,30.33
2022-09-03T17:22:42.636Z,30.31
2022-09-03T17:25:29.019Z,30.20
2022-09-03T17:28:57.844Z,30.15
2022-09-03T17:31:40.614Z,30.10
2022-09-03T17:34:19.618Z,30.04
2022-09-03T17:37:27.514Z,29.97
2022-09-03T17:40:31.013Z,29.90
2022-09-03T17:43:18.540Z,29.84
2022-09-03T17:45:51.086Z,29.77
2022-09-03T17:48:24.900Z,29.69
2022-09-03T17:50:57.430Z,29.66
2022-09-03T17:53:48.820Z,29.55
2022-09-03T17:56:33.704Z,29.50
2022-09-03T17:59:08.008Z,29.48
2022-09-03T18:01:38.721Z,29.40
2022-09-03T18:04:19.983Z,29.32
2022-09-03T18:07:08.112Z,29.26
2022-09-03T18:09:46.164Z,29.22
2022-09-03T18:13:04.615Z,29.13
2022-09-03T18:15:40.345Z,29.11
2022-09-03T18:18:26.580Z,29.02
2022-09-03T18:21:25.234Z,28.99
2022-09-03T18:24:37.864Z,28.91
2022-09-03T18:27:31.346Z,28.88
2022-09-03T18:30:26.758Z,28.81
2022-09-03T18:33:12.252Z,28.78
2022-09-03T18:35:58.069Z,28.71
2022-09-03T18:38:45.869Z,28.64
2022-09-03T18:41:33.918Z,28.60
2022-09-03T18:44:37.531Z,28.55
2022-09-03T18:51:10.558Z,28.43
2022-09-03T18:54:26.225Z,28.37
2022-09-03T18:57:13.053Z,28.35
2022-09-03T19:00:28.788Z,28.27
2022-09-03T19:03:55.369Z,28.27
2022-09-03T19:06:55.424Z,28.29
2022-09-03T19:09:55.610Z,28.21
2022-09-03T19:12:40.500Z,28.23
2022-09-03T19:15:31.486Z,28.20
2022-09-03T19:18:38.598Z,28.16
2022-09-03T19:21:36.739Z,28.12
2022-09-03T19:24:21.582Z,28.14
2022-09-03T19:27:51.711Z,28.15
2022-09-03T19:31:00.682Z,28.08
2022-09-03T19:34:10.799Z,28.02
2022-09-03T19:37:04.705Z,27.98
2022-09-03T19:40:27.403Z,27.92
2022-09-03T19:43:48.262Z,27.88
2022-09-03T19:46:48.818Z,27.83
2022-09-03T19:49:49.180Z,27.77
2022-09-03T19:52:40.308Z,27.75
2022-09-03T19:55:28.914Z,27.68
2022-09-03T19:58:39.602Z,27.63
2022-09-03T20:01:24.800Z,27.57
2022-09-03T20:04:10.894Z,27.49
2022-09-03T20:06:57.724Z,27.42
2022-09-03T20:09:48.223Z,27.35
2022-09-03T20:12:18.761Z,27.29
2022-09-03T20:14:45.293Z,27.24
2022-09-03T20:17:20.153Z,27.14
2022-09-03T20:19:55.577Z,27.09
2022-09-03T20:22:32.370Z,27.06
2022-09-03T20:24:59.642Z,27.03
2022-09-03T20:27:52.236Z,26.97
2022-09-03T20:30:21.242Z,26.94
2022-09-03T20:32:53.232Z,26.89
2022-09-03T20:35:25.910Z,26.82
2022-09-03T20:38:31.771Z,26.75
2022-09-03T20:41:26.404Z,26.72
2022-09-03T20:43:59.238Z,26.72
2022-09-03T20:46:54.922Z,26.63
2022-09-03T20:50:10.023Z,26.59
2022-09-03T20:53:02.026Z,26.53
2022-09-03T20:55:36.548Z,26.51
2022-09-03T20:58:18.228Z,26.45
2022-09-03T21:00:57.985Z,26.39
2022-09-03T21:03:32.149Z,26.34
2022-09-03T21:06:44.298Z,26.28
2022-09-03T21:09:29.567Z,26.30
2022-09-03T21:12:09.878Z,26.24
2022-09-03T21:14:54.494Z,26.19
2022-09-03T21:17:38.976Z,26.16
2022-09-03T21:20:15.879Z,26.13
2022-09-03T21:23:21.522Z,26.08
2022-09-03T21:25:54.223Z,26.07
2022-09-03T21:28:32.154Z,26.01
2022-09-03T21:31:02.461Z,25.97
2022-09-03T21:33:38.743Z,25.91
2022-09-03T21:36:20.217Z,25.81
2022-09-03T21:38:59.536Z,25.77
2022-09-03T21:41:47.563Z,25.68
2022-09-03T21:44:19.076Z,25.66
2022-09-03T21:46:54.719Z,25.56
2022-09-03T21:49:29.390Z,25.52
2022-09-03T21:52:04.095Z,25.45
2022-09-03T21:54:33.652Z,25.42
2022-09-03T21:57:28.443Z,25.33
2022-09-03T22:00:10.030Z,25.28
2022-09-03T22:02:36.929Z,25.28
2022-09-03T22:05:04.416Z,25.23
2022-09-03T22:07:50.821Z,25.15
2022-09-03T22:10:23.192Z,25.15
2022-09-03T22:13:27.316Z,25.06
2022-09-03T22:16:01.456Z,25.04
2022-09-03T22:18:31.106Z,25.00
2022-09-03T22:21:05.303Z,24.95
2022-09-03T22:23:56.164Z,24.92
2022-09-03T22:26:45.115Z,24.87
2022-09-03T22:29:15.452Z,24.86
2022-09-03T22:32:02.149Z,24.80
2022-09-03T22:34:43.808Z,24.79
2022-09-03T22:37:41.633Z,24.75
2022-09-03T22:40:42.125Z,24.70
2022-09-03T22:43:30.222Z,24.65
2022-09-03T22:46:10.396Z,24.61
2022-09-03T22:48:55.157Z,24.56
2022-09-03T22:51:22.104Z,24.55
2022-09-03T22:54:07.319Z,24.52
2022-09-03T22:56:38.095Z,24.49
2022-09-03T22:59:12.953Z,24.46
2022-09-03T23:01:45.363Z,24.43
2022-09-03T23:04:38.551Z,24.38
2022-09-03T23:07:31.507Z,24.36
2022-09-03T23:10:04.417Z,24.36
2022-09-03T23:12:44.987Z,24.31
2022-09-03T23:15:30.438Z,24.27
2022-09-03T23:18:17.599Z,24.25
2022-09-03T23:20:55.316Z,24.21
2022-09-03T23:23:44.998Z,24.17
2022-09-03T23:26:14.077Z,24.15
2022-09-03T23:28:54.439Z,24.09
2022-09-03T23:31:24.087Z,24.05
2022-09-03T23:33:53.780Z,24.00
2022-09-03T23:40:10.353Z,23.90
2022-09-03T23:43:00.643Z,23.87
2022-09-03T23:45:27.680Z,23.88
2022-09-03T23:48:12.214Z,23.78
2022-09-03T23:51:10.951Z,23.74
2022-09-03T23:54:02.597Z,23.71
2022-09-03T23:56:45.440Z,23.69
2022-09-03T23:59:30.588Z,23.65
